Ternej, Russia
Current Conditions -  °F | °C
As of 11:30 AM on Wednesday 26 Nov 2014 (Local Time) from UHHH Reporting Station
Clear Clear  
Wind Chill: 12°   Ceiling: Unl
Heat Index: 12°   Visibility: 6mi
Dew Point:   Wind: 2mph
Humidity: 79%   Direction: 20°NNE
Pressure: 30.09"   Gusts: NA
Location:  45.05°N, 136.61°E
Report Text: UHHH 260130Z 02001MPS CAVOK M11/M14 Q1019 NOSIG RMK QFE758/101023090060
Loading
Personal Weather Stations






























Interactive Weather Map New forecast layout! Learn more

10-Day Weather Forecast

Advertisements
Track Severe Weather on mobile